Terminal Aerodrome Forecast
Issued by NWS

Current Version | Previous Version | Graphics & Text | Print | Product List | Glossary On
Versions: 1 2 3 4 5 6 7 8 9 10 11 12 13 14 15
000
FTUS41 KPBZ 270524
TAFMGW
TAF
KMGW 270524Z 2706/2806 24003KT P6SM SCT250
      TEMPO 2709/2712 4SM BR
     FM271500 22008KT P6SM SKC
     FM280000 20003KT P6SM SKC=

USA.gov is the U.S. government's official web portal to all federal, state and local government web resources and services.